createdAt,value
2019-02-19T00:02:30.653Z,97862.78
2019-02-19T00:07:34.062Z,97857.22
2019-02-19T00:12:37.490Z,97855.93
2019-02-19T00:17:40.896Z,97847.83
2019-02-19T00:22:44.300Z,97855.09
2019-02-19T00:27:47.717Z,97849.13
2019-02-19T00:32:51.147Z,97869.16
2019-02-19T00:37:54.534Z,97854.21
2019-02-19T00:42:57.993Z,97852.09
2019-02-19T00:48:01.491Z,97852.53
2019-02-19T00:53:04.930Z,97862.33
2019-02-19T00:58:08.409Z,97861.91
2019-02-19T01:03:11.798Z,97867.87
2019-02-19T01:08:15.264Z,97864.47
2019-02-19T01:13:18.633Z,97861.91
2019-02-19T01:18:22.138Z,97856.38
2019-02-19T01:23:25.533Z,97868.28
2019-02-19T01:28:28.978Z,97873.83
2019-02-19T01:33:32.362Z,97870.88
2019-02-19T01:38:35.768Z,97863.59
2019-02-19T01:43:39.182Z,97868.70
2019-02-19T01:48:42.624Z,97866.11
2019-02-19T01:53:46.031Z,97864.44
2019-02-19T01:58:49.586Z,97852.91
2019-02-19T02:03:53.083Z,97855.88
2019-02-19T02:08:56.443Z,97860.98
2019-02-19T02:13:59.971Z,97860.94
2019-02-19T02:19:03.452Z,97863.51
2019-02-19T02:24:06.957Z,97865.67
2019-02-19T02:29:10.520Z,97859.70
2019-02-19T02:34:13.932Z,97859.70
2019-02-19T02:39:17.404Z,97860.09
2019-02-19T02:44:20.803Z,97857.11
2019-02-19T02:49:24.261Z,97865.66
2019-02-19T02:54:27.804Z,97856.31
2019-02-19T02:59:31.294Z,97854.19
2019-02-19T03:04:34.901Z,97851.61
2019-02-19T03:09:38.543Z,97851.58
2019-02-19T03:14:42.205Z,97848.16
2019-02-19T03:19:45.804Z,97849.88
2019-02-19T03:24:49.265Z,97854.53
2019-02-19T03:29:52.670Z,97859.64
2019-02-19T03:34:56.110Z,97857.11
2019-02-19T03:39:59.691Z,97860.52
2019-02-19T03:45:03.132Z,97858.33
2019-02-19T03:50:06.643Z,97866.44
2019-02-19T03:55:10.135Z,97867.66
2019-02-19T04:00:13.593Z,97873.18
2019-02-19T04:05:17.245Z,97866.80
2019-02-19T04:10:20.638Z,97869.30
2019-02-19T04:15:24.091Z,97867.53
2019-02-19T04:20:27.484Z,97877.74
2019-02-19T04:25:31.003Z,97874.41
2019-02-19T04:30:34.411Z,97882.13
2019-02-19T04:35:37.880Z,97878.25
2019-02-19T04:40:41.320Z,97884.63
2019-02-19T04:45:44.742Z,97879.13
2019-02-19T04:50:48.149Z,97882.97
2019-02-19T04:55:51.714Z,97887.58
2019-02-19T05:00:55.169Z,97883.33
2019-02-19T05:05:58.678Z,97896.06
2019-02-19T05:11:02.158Z,97894.40
2019-02-19T05:16:05.605Z,97904.16
2019-02-19T05:21:09.086Z,97901.56
2019-02-19T05:26:12.629Z,97902.81
2019-02-19T05:31:16.255Z,97901.46
2019-02-19T05:36:19.805Z,97908.81
2019-02-19T05:41:23.480Z,97903.63
2019-02-19T05:46:27.022Z,97910.81
2019-02-19T05:51:30.573Z,97916.33
2019-02-19T05:56:34.141Z,97917.14
2019-02-19T06:01:38.287Z,97918.45
2019-02-19T06:06:41.962Z,97920.56
2019-02-19T06:11:46.451Z,97931.15
2019-02-19T06:16:58.066Z,97923.53
2019-02-19T06:21:53.671Z,97931.21
2019-02-19T06:26:58.453Z,97938.05
2019-02-19T06:32:01.995Z,97952.98
2019-02-19T06:37:05.507Z,97948.41
2019-02-19T06:42:08.923Z,97956.58
2019-02-19T06:47:12.729Z,97961.74
2019-02-19T06:52:16.164Z,97965.66
2019-02-19T06:57:19.564Z,97961.45
2019-02-19T07:02:31.935Z,97966.66
2019-02-19T07:07:35.385Z,97972.27
2019-02-19T07:12:39.003Z,97978.72
2019-02-19T07:17:42.642Z,97980.89
2019-02-19T07:22:46.121Z,97979.25
2019-02-19T07:27:49.674Z,97978.42
2019-02-19T07:32:54.224Z,97975.88
2019-02-19T07:37:57.779Z,97982.28
2019-02-19T07:43:01.197Z,97988.69
2019-02-19T07:48:04.714Z,97983.13
2019-02-19T07:53:08.315Z,97986.53
2019-02-19T07:58:11.756Z,97980.95
2019-02-19T08:03:15.251Z,97986.02
2019-02-19T08:08:18.768Z,97982.13
2019-02-19T08:13:22.292Z,97982.48
2019-02-19T08:18:25.852Z,97977.22
2019-02-19T08:23:29.946Z,97983.89
2019-02-19T08:28:32.827Z,97988.02
2019-02-19T08:33:36.464Z,97985.64
2019-02-19T08:38:39.920Z,97984.91
2019-02-19T08:43:43.327Z,97984.48
2019-02-19T08:48:46.752Z,97980.20
2019-02-19T08:53:50.247Z,97981.02
2019-02-19T08:58:53.684Z,97989.83
2019-02-19T09:03:57.268Z,97980.00
2019-02-19T09:09:00.804Z,97988.21
2019-02-19T09:14:05.246Z,97988.66
2019-02-19T09:19:08.649Z,97987.27
2019-02-19T09:24:12.060Z,97987.31
2019-02-19T09:29:15.443Z,97984.00
2019-02-19T09:34:18.850Z,97975.56
2019-02-19T09:39:22.352Z,97965.23
2019-02-19T09:44:25.784Z,97964.81
2019-02-19T09:49:29.212Z,97955.96
2019-02-19T09:54:32.637Z,97961.76
2019-02-19T09:59:36.168Z,97957.41
2019-02-19T10:04:39.649Z,97950.32
2019-02-19T10:09:43.039Z,97954.20
2019-02-19T10:14:46.508Z,97952.30
2019-02-19T10:19:49.892Z,97946.45
2019-02-19T10:24:53.269Z,97945.69
2019-02-19T10:29:56.672Z,97945.08
2019-02-19T10:35:00.196Z,97937.22
2019-02-19T10:40:03.690Z,97928.47
2019-02-19T10:45:08.634Z,97929.95
2019-02-19T10:50:12.095Z,97933.41
2019-02-19T10:55:15.591Z,97930.53
2019-02-19T11:00:19.100Z,97923.45
2019-02-19T11:05:22.592Z,97918.97
2019-02-19T11:10:25.952Z,97906.16
2019-02-19T11:15:29.638Z,97893.66
2019-02-19T11:20:33.121Z,97873.86
2019-02-19T11:25:36.523Z,97888.52
2019-02-19T11:30:39.967Z,97888.03
2019-02-19T11:35:43.355Z,97889.53
2019-02-19T11:40:46.765Z,97888.55
2019-02-19T11:45:50.140Z,97887.98
2019-02-19T11:50:53.590Z,97884.69
2019-02-19T11:55:57.091Z,97879.78
2019-02-19T12:01:00.495Z,97877.45
2019-02-19T12:06:03.909Z,97864.37
2019-02-19T12:11:07.332Z,97844.39
2019-02-19T12:16:10.731Z,97857.98
2019-02-19T12:21:14.198Z,97853.88
2019-02-19T12:26:17.608Z,97841.98
2019-02-19T12:31:21.014Z,97842.97
2019-02-19T12:36:24.531Z,97845.00
2019-02-19T12:41:27.931Z,97843.63
2019-02-19T12:46:31.435Z,97837.93
2019-02-19T12:51:34.821Z,97832.43
2019-02-19T12:56:38.279Z,97834.34
2019-02-19T13:01:42.103Z,97839.47
2019-02-19T13:06:45.505Z,97838.45
2019-02-19T13:11:48.905Z,97840.13
2019-02-19T13:16:52.375Z,97833.52
2019-02-19T13:21:55.787Z,97831.99
2019-02-19T13:26:59.490Z,97832.75
2019-02-19T13:32:02.984Z,97828.67
2019-02-19T13:37:06.613Z,97810.73
2019-02-19T13:42:10.025Z,97813.00
2019-02-19T13:47:13.436Z,97820.84
2019-02-19T13:52:23.482Z,97824.76
2019-02-19T13:57:25.551Z,97826.66
2019-02-19T14:02:29.120Z,97828.44
2019-02-19T14:07:32.548Z,97832.59
2019-02-19T14:12:36.032Z,97836.64
2019-02-19T14:17:39.483Z,97840.79
2019-02-19T14:22:47.973Z,97841.86
2019-02-19T14:27:55.791Z,97840.17
2019-02-19T14:35:05.578Z,97849.38
2019-02-19T14:40:13.432Z,97838.33
2019-02-19T14:45:25.057Z,97838.39
2019-02-19T14:50:53.728Z,97841.01
2019-02-19T14:58:07.478Z,97846.50
2019-02-19T15:03:16.417Z,97849.71
2019-02-19T15:08:25.084Z,97860.19
2019-02-19T15:13:36.617Z,97860.94
2019-02-19T15:18:49.107Z,97855.28
2019-02-19T15:26:04.864Z,97870.27
2019-02-19T15:31:13.597Z,97845.48
2019-02-19T15:36:22.255Z,97851.17
2019-02-19T15:41:30.928Z,97858.00
2019-02-19T15:47:10.396Z,97862.66
2019-02-19T15:52:37.919Z,97866.06
2019-02-19T15:57:50.563Z,97854.55
2019-02-19T16:02:58.288Z,97861.90
2019-02-19T16:08:10.975Z,97858.31
2019-02-19T16:13:19.568Z,97858.93
2019-02-19T16:18:42.425Z,97863.24
2019-02-19T16:23:57.175Z,97865.84
2019-02-19T16:29:13.688Z,97868.33
2019-02-19T16:34:21.348Z,97870.61
2019-02-19T16:41:37.020Z,97874.45
2019-02-19T16:46:51.567Z,97888.86
2019-02-19T16:52:11.280Z,97881.97
2019-02-19T16:57:25.018Z,97886.64
2019-02-19T17:03:40.669Z,97878.55
2019-02-19T17:08:49.111Z,97899.58
2019-02-19T17:14:02.787Z,97900.78
2019-02-19T17:19:13.251Z,97906.40
2019-02-19T17:24:24.721Z,97922.59
2019-02-19T17:29:33.349Z,97926.31
2019-02-19T17:35:12.008Z,97928.71
2019-02-19T17:40:24.564Z,97939.38
2019-02-19T17:45:35.060Z,97944.56
2019-02-19T17:50:45.552Z,97950.13
2019-02-19T17:55:54.383Z,97958.72
2019-02-19T18:01:03.073Z,97963.53
2019-02-19T18:06:12.624Z,97969.83
2019-02-19T18:11:21.425Z,97974.37
2019-02-19T18:16:29.061Z,97975.68
2019-02-19T18:21:32.617Z,97968.55
2019-02-19T18:26:37.118Z,97976.17
2019-02-19T18:31:40.829Z,97977.89
2019-02-19T18:36:44.417Z,97983.83
2019-02-19T18:41:47.984Z,97980.39
2019-02-19T18:46:51.601Z,97990.13
2019-02-19T18:51:55.320Z,97996.37
2019-02-19T18:56:58.850Z,97994.59
2019-02-19T19:02:02.434Z,97997.92
2019-02-19T19:07:05.876Z,97998.58
2019-02-19T19:12:09.332Z,98009.50
2019-02-19T19:17:12.983Z,98013.44
2019-02-19T19:22:17.088Z,98016.87
2019-02-19T19:27:21.474Z,98012.89
2019-02-19T19:32:25.233Z,98019.69
2019-02-19T19:37:30.052Z,98026.16
2019-02-19T19:42:33.519Z,98022.85
2019-02-19T19:47:37.177Z,98029.42
2019-02-19T19:52:41.257Z,98024.81
2019-02-19T19:57:45.065Z,98030.80
2019-02-19T20:02:48.807Z,98041.97
2019-02-19T20:07:53.232Z,98050.83
2019-02-19T20:12:57.025Z,98060.77
2019-02-19T20:18:01.460Z,98068.86
2019-02-19T20:23:05.221Z,98078.63
2019-02-19T20:28:08.966Z,98076.37
2019-02-19T20:33:13.058Z,98079.95
2019-02-19T20:38:16.993Z,98084.91
2019-02-19T20:43:21.163Z,98087.16
2019-02-19T20:48:24.806Z,98081.69
2019-02-19T20:53:29.215Z,98075.89
2019-02-19T20:58:33.975Z,98093.24
2019-02-19T21:03:36.755Z,98090.33
2019-02-19T21:08:40.495Z,98097.56
2019-02-19T21:13:44.383Z,98101.17
2019-02-19T21:18:47.915Z,98105.17
2019-02-19T21:23:51.615Z,98106.02
2019-02-19T21:28:55.356Z,98103.88
2019-02-19T21:33:59.267Z,98107.80
2019-02-19T21:39:02.964Z,98108.33
2019-02-19T21:44:06.681Z,98103.27
2019-02-19T21:49:10.384Z,98103.31
2019-02-19T21:54:13.989Z,98104.63
2019-02-19T21:59:17.867Z,98105.95
2019-02-19T22:04:21.475Z,98106.24
2019-02-19T22:09:25.242Z,98103.37
2019-02-19T22:14:29.013Z,98103.97
2019-02-19T22:19:32.683Z,98107.53
2019-02-19T22:24:37.444Z,98102.36
2019-02-19T22:29:41.046Z,98104.55
2019-02-19T22:34:44.539Z,98110.59
2019-02-19T22:39:48.038Z,98113.60
2019-02-19T22:44:51.696Z,98115.41
2019-02-19T22:49:55.299Z,98114.53
2019-02-19T22:55:16.293Z,98121.86
2019-02-19T23:00:25.604Z,98132.97
2019-02-19T23:05:29.387Z,98136.87
2019-02-19T23:10:33.312Z,98137.77
2019-02-19T23:15:37.183Z,98139.91
2019-02-19T23:20:40.988Z,98139.05
2019-02-19T23:25:44.521Z,98143.36
2019-02-19T23:30:47.900Z,98152.77
2019-02-19T23:35:55.557Z,98151.04
2019-02-19T23:40:59.013Z,98153.64
2019-02-19T23:46:02.844Z,98153.65
2019-02-19T23:51:06.244Z,98148.52
2019-02-19T23:56:09.680Z,98151.52
